CheckWX is a tool to help pilots better visualize weather data.  It is not intended as a substitute for an official pre-flight weather briefing.

01:04:03 UTC

EGGW METAR
London Luton Airport
London, United Kingdom
Current

44 mins ago

EGGW 200020Z AUTO 24008KT 9999 NCD 12/10 Q1018
Observed
Aug-20 @ 00:20 UTC
Wind
  • 240° at 8 KTS
Visibility
10,000+ meters
Flight Rules
VFR
Cloud Levels
  • Clear skies
Temperature
12°C / 54°F
Dewpoint
10°C / 50°F
Humidity
88%
Altimeter
30.06" Hg
Pressure
1017.92 hPa
Previous

1 hour ago

EGGW 192350Z AUTO 23008KT 9999 NCD 12/10 Q1018
Observed
Aug-19 @ 23:50 UTC
Wind
  • 230° at 8 KTS
Visibility
10,000+ meters
Flight Rules
VFR
Cloud Levels
  • Clear skies
Temperature
12°C / 54°F
Dewpoint
10°C / 50°F
Humidity
88%
Altimeter
30.06" Hg
Pressure
1017.92 hPa
Previous

2 hours ago

EGGW 192320Z AUTO 24008KT 9999 NCD 12/10 Q1018
Observed
Aug-19 @ 23:20 UTC
Wind
  • 240° at 8 KTS
Visibility
10,000+ meters
Flight Rules
VFR
Cloud Levels
  • Clear skies
Temperature
12°C / 54°F
Dewpoint
10°C / 50°F
Humidity
88%
Altimeter
30.06" Hg
Pressure
1017.92 hPa